Time;durP1;ratioP1;P1;durP2;ratioP2;P2;SDS_P1;SDS_P2;PMS_P1;PMS_P2;Temp;Humidity;BMP_temperature;BMP_pressure;BME280_temperature;BME280_humidity;BME280_pressure;Samples;Min_cycle;Max_cycle;Signal;HPM_P1;HPM_P2
2023/07/24 00:00:57;;;;;;;6.03;4.28;;;18.80;99.90;;;;;;5044882;28;20619;-53
2023/07/24 00:03:23;;;;;;;9.68;4.40;;;18.70;99.90;;;;;;5040568;28;20090;-53
2023/07/24 00:05:48;;;;;;;8.68;4.65;;;18.60;99.90;;;;;;5042947;28;20124;-52
2023/07/24 00:08:14;;;;;;;6.90;4.55;;;18.60;99.90;;;;;;5043291;28;20467;-54
2023/07/24 00:10:39;;;;;;;7.97;4.35;;;18.50;99.90;;;;;;5043336;28;20022;-59
2023/07/24 00:13:05;;;;;;;8.43;4.43;;;18.50;99.90;;;;;;5039076;28;20519;-53
2023/07/24 00:15:30;;;;;;;8.73;4.40;;;18.40;99.90;;;;;;5038457;28;20033;-54
2023/07/24 00:17:56;;;;;;;9.85;4.50;;;18.30;99.90;;;;;;5045862;28;20036;-60
2023/07/24 00:20:24;;;;;;;7.00;4.22;;;18.40;99.90;;;;;;5035952;28;20037;-55
2023/07/24 00:22:49;;;;;;;7.82;4.50;;;18.50;99.90;;;;;;5040247;28;20037;-54
2023/07/24 00:25:15;;;;;;;7.30;4.53;;;18.40;99.90;;;;;;5044076;28;20396;-53
2023/07/24 00:27:41;;;;;;;10.45;4.25;;;18.40;99.90;;;;;;5035931;28;20037;-52
2023/07/24 00:30:07;;;;;;;11.90;4.57;;;18.30;99.90;;;;;;5039880;28;20036;-55
2023/07/24 00:32:32;;;;;;;11.32;5.45;;;18.40;99.90;;;;;;5041336;28;20042;-54
2023/07/24 00:34:58;;;;;;;6.38;4.28;;;18.30;99.90;;;;;;5044582;28;20037;-56
2023/07/24 00:37:24;;;;;;;12.38;5.63;;;18.30;99.90;;;;;;5039160;28;20405;-53
2023/07/24 00:39:50;;;;;;;9.35;5.60;;;18.20;99.90;;;;;;5038745;28;20410;-57
2023/07/24 00:42:15;;;;;;;8.38;4.70;;;18.30;99.90;;;;;;5035645;28;20060;-53
2023/07/24 00:44:41;;;;;;;9.05;5.03;;;18.30;99.90;;;;;;5034896;28;20069;-53
2023/07/24 00:47:08;;;;;;;12.68;6.20;;;18.30;99.90;;;;;;5034969;28;20041;-52
2023/07/24 00:49:34;;;;;;;16.55;5.32;;;18.20;99.90;;;;;;5036448;28;20045;-53
2023/07/24 00:52:00;;;;;;;9.48;5.57;;;18.20;99.90;;;;;;5037834;28;20041;-58
2023/07/24 00:54:29;;;;;;;10.52;5.57;;;18.20;99.90;;;;;;5042346;28;20029;-54
2023/07/24 00:56:54;;;;;;;15.65;14.40;;;18.20;99.90;;;;;;5042183;28;20519;-53
2023/07/24 00:59:20;;;;;;;8.13;7.47;;;18.10;99.90;;;;;;5033454;28;20029;-54
2023/07/24 01:01:47;;;;;;;4.40;4.10;;;18.10;99.90;;;;;;5039528;28;20043;-54
2023/07/24 01:04:14;;;;;;;11.55;10.75;;;18.20;99.90;;;;;;5035721;28;20026;-53
2023/07/24 01:06:40;;;;;;;4.88;3.65;;;18.20;99.90;;;;;;5031999;28;20541;-57
2023/07/24 01:09:05;;;;;;;0.00;0.00;;;18.10;99.90;;;;;;5037217;28;20047;-55
2023/07/24 01:11:43;;;;;;;0.00;0.00;;;18.10;99.90;;;;;;5036058;28;20056;-53
2023/07/24 01:14:26;;;;;;;0.00;0.00;;;18.00;99.90;;;;;;5038169;28;20504;-56
2023/07/24 01:16:55;;;;;;;0.00;0.00;;;18.10;99.90;;;;;;5042965;28;20060;-54
2023/07/24 01:19:42;;;;;;;0.00;0.00;;;18.10;99.90;;;;;;5033934;28;20029;-52
2023/07/24 01:22:17;;;;;;;0.00;0.00;;;18.10;99.90;;;;;;5035980;28;20443;-53
2023/07/24 01:24:57;;;;;;;0.00;0.00;;;18.20;99.90;;;;;;5040958;28;20171;-54
2023/07/24 01:27:26;;;;;;;0.00;0.00;;;18.20;99.90;;;;;;5041127;28;20033;-54
2023/07/24 01:29:51;;;;;;;0.00;0.00;;;18.30;99.90;;;;;;5038060;28;20036;-53
2023/07/24 01:32:18;;;;;;;0.00;0.00;;;18.30;99.90;;;;;;5038589;28;20048;-54
2023/07/24 01:34:44;;;;;;;0.00;0.00;;;18.20;99.90;;;;;;5039314;28;20033;-54
2023/07/24 01:37:12;;;;;;;0.00;0.00;;;18.30;99.90;;;;;;5041186;28;20048;-54
2023/07/24 01:39:39;;;;;;;0.00;0.00;;;18.30;99.90;;;;;;5033149;28;20033;-54
2023/07/24 01:42:05;;;;;;;0.00;0.00;;;18.20;99.90;;;;;;5034407;28;20471;-54
2023/07/24 01:44:31;;;;;;;0.00;0.00;;;18.20;99.90;;;;;;5037301;28;20492;-52
2023/07/24 01:46:56;;;;;;;0.00;0.00;;;18.20;99.90;;;;;;5037302;28;20126;-53
2023/07/24 01:49:22;;;;;;;0.00;0.00;;;18.30;99.90;;;;;;5038088;28;20036;-53
2023/07/24 01:51:47;;;;;;;0.00;0.00;;;18.20;99.90;;;;;;5037017;28;20036;-54
2023/07/24 01:54:13;;;;;;;0.00;0.00;;;18.20;99.90;;;;;;5036559;28;20021;-56
2023/07/24 01:56:39;;;;;;;0.00;0.00;;;18.20;99.90;;;;;;5036940;28;20037;-54
2023/07/24 01:59:05;;;;;;;0.00;0.00;;;18.10;99.90;;;;;;5035938;28;20559;-53
2023/07/24 02:01:31;;;;;;;0.00;0.00;;;18.10;99.90;;;;;;5029718;28;20056;-55
2023/07/24 02:03:57;;;;;;;0.00;0.00;;;18.10;99.90;;;;;;5040920;28;20071;-52
2023/07/24 02:06:22;;;;;;;0.00;0.00;;;18.20;99.90;;;;;;5038332;28;20117;-54
2023/07/24 02:08:51;;;;;;;0.00;0.00;;;18.30;99.90;;;;;;5038101;28;20591;-53
2023/07/24 02:11:16;;;;;;;0.00;0.00;;;18.30;99.90;;;;;;5035723;28;20392;-54
2023/07/24 02:13:44;;;;;;;0.00;0.00;;;18.30;99.90;;;;;;5044508;28;20032;-53
2023/07/24 02:16:10;;;;;;;0.00;0.00;;;18.20;99.90;;;;;;5037000;28;20530;-54
2023/07/24 02:18:37;;;;;;;0.00;0.00;;;18.30;99.90;;;;;;5035400;28;20080;-58
2023/07/24 02:21:03;;;;;;;0.00;0.00;;;18.20;99.90;;;;;;5036479;28;20750;-55
2023/07/24 02:23:29;;;;;;;0.00;0.00;;;18.10;99.90;;;;;;5040005;28;20116;-55
2023/07/24 02:25:54;;;;;;;0.00;0.00;;;18.10;99.90;;;;;;5033481;28;20029;-56
2023/07/24 02:28:20;;;;;;;0.00;0.00;;;18.20;99.90;;;;;;5035625;28;20040;-54
2023/07/24 02:30:47;;;;;;;0.00;0.00;;;18.20;99.90;;;;;;5042101;28;20022;-61
2023/07/24 02:33:13;;;;;;;0.00;0.00;;;18.30;99.90;;;;;;5038678;28;20392;-55
2023/07/24 02:35:40;;;;;;;0.00;0.00;;;18.50;99.90;;;;;;5040882;28;20033;-55
2023/07/24 02:38:05;;;;;;;0.00;0.00;;;18.40;99.90;;;;;;5043379;28;20032;-54
2023/07/24 02:40:31;;;;;;;0.00;0.00;;;18.40;99.90;;;;;;5037512;28;20040;-56
2023/07/24 02:42:56;;;;;;;0.00;0.00;;;18.50;99.90;;;;;;5041306;28;20033;-54
2023/07/24 02:45:22;;;;;;;0.00;0.00;;;18.40;99.90;;;;;;5033016;28;20064;-54
2023/07/24 02:47:47;;;;;;;0.00;0.00;;;18.30;99.90;;;;;;5034841;28;20034;-56
2023/07/24 02:50:13;;;;;;;0.00;0.00;;;18.30;99.90;;;;;;5041065;28;20033;-60
2023/07/24 02:52:39;;;;;;;0.00;0.00;;;18.40;99.90;;;;;;5038711;28;20223;-54
2023/07/24 02:55:04;;;;;;;0.00;0.00;;;18.50;99.90;;;;;;5040968;28;20031;-56
2023/07/24 02:57:30;;;;;;;0.00;0.00;;;18.40;99.90;;;;;;5040630;28;20468;-55
2023/07/24 02:59:56;;;;;;;0.00;0.00;;;18.50;99.90;;;;;;5035095;28;20025;-53
2023/07/24 03:02:21;;;;;;;0.00;0.00;;;18.60;99.90;;;;;;5036236;28;20067;-54
2023/07/24 03:04:47;;;;;;;0.00;0.00;;;18.50;99.90;;;;;;5037611;28;20597;-59
2023/07/24 03:07:12;;;;;;;0.00;0.00;;;18.40;99.90;;;;;;5039882;28;20425;-54
2023/07/24 03:09:38;;;;;;;0.00;0.00;;;18.30;99.90;;;;;;5035480;28;20099;-54
2023/07/24 03:12:04;;;;;;;0.00;0.00;;;18.20;99.90;;;;;;5028536;28;20536;-54
2023/07/24 03:14:29;;;;;;;0.00;0.00;;;18.20;99.90;;;;;;5040918;28;20047;-54
2023/07/24 03:16:55;;;;;;;0.00;0.00;;;18.20;99.90;;;;;;5043635;28;20349;-59
2023/07/24 03:19:21;;;;;;;0.00;0.00;;;18.20;99.90;;;;;;5038104;28;20040;-54
2023/07/24 03:21:46;;;;;;;0.00;0.00;;;18.10;99.90;;;;;;5039966;28;20037;-53
2023/07/24 03:24:12;;;;;;;0.00;0.00;;;18.10;99.90;;;;;;5042490;28;20032;-53
2023/07/24 03:26:38;;;;;;;0.00;0.00;;;18.10;99.90;;;;;;5040232;28;20037;-54
2023/07/24 03:29:05;;;;;;;0.00;0.00;;;18.10;99.90;;;;;;5041776;28;20036;-54
2023/07/24 03:31:30;;;;;;;0.00;0.00;;;18.00;99.90;;;;;;5040089;28;20701;-54
2023/07/24 03:33:56;;;;;;;0.00;0.00;;;18.00;99.90;;;;;;5040901;28;20037;-57
2023/07/24 03:36:21;;;;;;;0.00;0.00;;;18.20;99.90;;;;;;5056130;28;20041;-55
2023/07/24 03:38:47;;;;;;;0.00;0.00;;;18.20;99.90;;;;;;5042137;28;20224;-57
2023/07/24 03:41:12;;;;;;;0.00;0.00;;;18.00;99.90;;;;;;5038831;28;20068;-54
2023/07/24 03:43:38;;;;;;;0.00;0.00;;;18.10;99.90;;;;;;5036628;28;20053;-52
2023/07/24 03:46:03;;;;;;;0.00;0.00;;;18.10;99.90;;;;;;5036602;28;20411;-54
2023/07/24 03:48:29;;;;;;;0.00;0.00;;;18.20;99.90;;;;;;5037734;28;20052;-55
2023/07/24 03:50:59;;;;;;;0.00;0.00;;;18.10;99.90;;;;;;5047254;28;20036;-54
2023/07/24 03:53:25;;;;;;;0.00;0.00;;;18.30;99.90;;;;;;5041200;28;20051;-56
2023/07/24 03:55:51;;;;;;;0.00;0.00;;;18.10;99.90;;;;;;5042445;28;20128;-56
2023/07/24 03:58:16;;;;;;;0.00;0.00;;;18.10;99.90;;;;;;5036032;28;20481;-54
2023/07/24 04:00:42;;;;;;;0.00;0.00;;;18.30;99.90;;;;;;5039172;28;20022;-54
2023/07/24 04:03:08;;;;;;;0.00;0.00;;;18.30;99.90;;;;;;5041509;28;20022;-59
2023/07/24 04:05:34;;;;;;;0.00;0.00;;;18.20;99.90;;;;;;5035286;28;20669;-55
2023/07/24 04:08:00;;;;;;;0.00;0.00;;;18.30;99.90;;;;;;5042277;28;20033;-53
2023/07/24 04:10:26;;;;;;;0.00;0.00;;;18.40;99.90;;;;;;5038747;28;20029;-53
2023/07/24 04:12:52;;;;;;;0.00;0.00;;;18.50;99.90;;;;;;5043087;28;20688;-55
2023/07/24 04:15:17;;;;;;;0.00;0.00;;;18.60;99.90;;;;;;5037534;28;20092;-57
2023/07/24 04:17:43;;;;;;;0.00;0.00;;;18.60;99.90;;;;;;5038790;28;20037;-56
2023/07/24 04:20:09;;;;;;;0.00;0.00;;;18.60;99.90;;;;;;5030732;28;20037;-56
2023/07/24 04:22:35;;;;;;;0.00;0.00;;;18.50;99.90;;;;;;5032603;28;20486;-54
2023/07/24 04:25:01;;;;;;;0.00;0.00;;;18.40;99.90;;;;;;5035826;28;20136;-57
2023/07/24 04:27:26;;;;;;;0.00;0.00;;;18.40;99.90;;;;;;5040289;28;20037;-55
2023/07/24 04:29:52;;;;;;;0.00;0.00;;;18.50;99.90;;;;;;5041606;28;20132;-55
2023/07/24 04:32:17;;;;;;;0.00;0.00;;;18.40;99.90;;;;;;5036880;28;20814;-55
2023/07/24 04:34:43;;;;;;;0.00;0.00;;;18.40;99.90;;;;;;5028603;28;20033;-56
2023/07/24 04:37:09;;;;;;;0.00;0.00;;;18.50;99.90;;;;;;5041022;28;20040;-55
2023/07/24 04:39:34;;;;;;;0.00;0.00;;;18.40;99.90;;;;;;5032769;28;20044;-57
2023/07/24 04:42:00;;;;;;;0.00;0.00;;;18.40;99.90;;;;;;5032636;28;20113;-56
2023/07/24 04:44:25;;;;;;;0.00;0.00;;;18.50;99.90;;;;;;5042830;28;20567;-58
2023/07/24 04:46:51;;;;;;;0.00;0.00;;;18.60;99.90;;;;;;5042225;28;20098;-62
2023/07/24 04:49:17;;;;;;;0.00;0.00;;;18.70;99.90;;;;;;5041896;28;20186;-58
2023/07/24 04:51:42;;;;;;;0.00;0.00;;;18.70;99.90;;;;;;5038343;28;20032;-58
2023/07/24 04:54:08;;;;;;;0.00;0.00;;;18.70;99.90;;;;;;5029881;28;20037;-55
2023/07/24 04:56:34;;;;;;;0.00;0.00;;;18.80;99.90;;;;;;5042717;28;20120;-54
2023/07/24 04:58:59;;;;;;;0.00;0.00;;;18.80;99.90;;;;;;5041424;28;20135;-59
2023/07/24 05:01:25;;;;;;;0.00;0.00;;;19.10;99.90;;;;;;5037807;28;20106;-58
2023/07/24 05:03:51;;;;;;;0.00;0.00;;;19.10;99.90;;;;;;5042119;28;20465;-58
2023/07/24 05:06:16;;;;;;;0.00;0.00;;;18.80;99.90;;;;;;5036954;28;20082;-56
2023/07/24 05:08:42;;;;;;;0.00;0.00;;;18.80;99.90;;;;;;5038844;28;20033;-56
2023/07/24 05:11:07;;;;;;;0.00;0.00;;;18.90;99.90;;;;;;5040135;28;20110;-56
2023/07/24 05:13:33;;;;;;;0.00;0.00;;;18.90;99.90;;;;;;5041071;28;20120;-59
2023/07/24 05:15:58;;;;;;;0.00;0.00;;;18.70;99.90;;;;;;5034480;28;20029;-57
2023/07/24 05:18:24;;;;;;;0.00;0.00;;;18.90;99.90;;;;;;5036736;28;20158;-54
2023/07/24 05:20:53;;;;;;;0.00;0.00;;;19.00;99.90;;;;;;5038830;28;20044;-55
2023/07/24 05:23:18;;;;;;;0.00;0.00;;;18.80;99.90;;;;;;5036053;28;20075;-56
2023/07/24 05:25:44;;;;;;;0.00;0.00;;;18.80;99.90;;;;;;5032382;28;20068;-57
2023/07/24 05:28:10;;;;;;;0.00;0.00;;;18.80;99.90;;;;;;5044642;28;20029;-63
2023/07/24 05:30:36;;;;;;;0.00;0.00;;;18.90;99.90;;;;;;5039279;28;20478;-56
2023/07/24 05:33:01;;;;;;;0.00;0.00;;;18.80;99.90;;;;;;5033937;28;20412;-56
2023/07/24 05:35:27;;;;;;;0.00;0.00;;;18.90;99.90;;;;;;5027515;28;20032;-58
2023/07/24 05:37:52;;;;;;;0.00;0.00;;;18.90;99.90;;;;;;5034447;28;20057;-55
2023/07/24 05:40:18;;;;;;;0.00;0.00;;;19.00;99.90;;;;;;5039392;28;20494;-59
2023/07/24 05:42:44;;;;;;;0.00;0.00;;;19.10;99.90;;;;;;5039474;28;20032;-57
2023/07/24 05:45:14;;;;;;;0.00;0.00;;;19.20;99.90;;;;;;5042155;28;20021;-57
2023/07/24 05:47:40;;;;;;;0.00;0.00;;;19.20;99.90;;;;;;5040844;28;20094;-56
2023/07/24 05:50:06;;;;;;;0.00;0.00;;;19.20;99.90;;;;;;5037974;28;20045;-56
2023/07/24 05:52:31;;;;;;;0.00;0.00;;;19.20;99.90;;;;;;5039785;28;20040;-57
2023/07/24 05:54:57;;;;;;;0.00;0.00;;;19.30;99.90;;;;;;5037401;28;20040;-55
2023/07/24 05:57:23;;;;;;;0.00;0.00;;;19.30;99.90;;;;;;5036730;28;20044;-57
2023/07/24 05:59:50;;;;;;;0.00;0.00;;;19.20;99.90;;;;;;5027340;28;20037;-56
2023/07/24 06:02:15;;;;;;;0.00;0.00;;;19.10;99.90;;;;;;5033740;28;20641;-56
2023/07/24 06:04:41;;;;;;;0.00;0.00;;;19.10;99.90;;;;;;5039337;28;20125;-59
2023/07/24 06:07:06;;;;;;;0.00;0.00;;;19.20;99.90;;;;;;5035339;28;20315;-57
2023/07/24 06:09:32;;;;;;;0.00;0.00;;;19.30;99.90;;;;;;5040195;28;20136;-54
2023/07/24 06:11:57;;;;;;;0.00;0.00;;;19.30;99.90;;;;;;5043992;28;20064;-56
2023/07/24 06:14:23;;;;;;;0.00;0.00;;;18.80;99.90;;;;;;5035477;28;20037;-56
2023/07/24 06:16:48;;;;;;;0.00;0.00;;;19.30;99.90;;;;;;5036814;28;20029;-57
2023/07/24 06:19:15;;;;;;;0.00;0.00;;;19.70;99.90;;;;;;5037065;28;20500;-58
2023/07/24 06:21:40;;;;;;;0.00;0.00;;;19.60;99.90;;;;;;5040777;28;20034;-57
2023/07/24 06:24:11;;;;;;;0.00;0.00;;;19.60;99.90;;;;;;5035240;28;20032;-57
2023/07/24 06:26:37;;;;;;;0.00;0.00;;;19.50;99.90;;;;;;5037297;28;20044;-57
2023/07/24 06:29:02;;;;;;;0.00;0.00;;;19.40;99.90;;;;;;5039596;28;20036;-57
2023/07/24 06:31:28;;;;;;;0.00;0.00;;;19.50;99.90;;;;;;5036962;28;20693;-58
2023/07/24 06:33:53;;;;;;;0.00;0.00;;;19.60;99.90;;;;;;5044851;28;20056;-61
2023/07/24 06:36:19;;;;;;;0.00;0.00;;;19.60;99.90;;;;;;5042131;28;20045;-60
2023/07/24 06:38:46;;;;;;;0.00;0.00;;;19.70;99.90;;;;;;5039732;28;20142;-60
2023/07/24 06:41:12;;;;;;;0.00;0.00;;;19.80;99.90;;;;;;5039721;28;20218;-55
2023/07/24 06:43:38;;;;;;;0.00;0.00;;;19.90;99.90;;;;;;5040208;28;20036;-61
2023/07/24 06:46:04;;;;;;;0.00;0.00;;;19.80;99.90;;;;;;5035649;28;20040;-57
2023/07/24 06:48:29;;;;;;;0.00;0.00;;;19.80;99.90;;;;;;5041863;28;20445;-57
2023/07/24 06:50:55;;;;;;;0.00;0.00;;;19.90;99.90;;;;;;5041105;28;20037;-55
2023/07/24 06:53:20;;;;;;;0.00;0.00;;;19.80;99.90;;;;;;5036843;28;20036;-56
2023/07/24 06:55:46;;;;;;;0.00;0.00;;;19.80;99.90;;;;;;5036906;28;20072;-57
2023/07/24 06:58:11;;;;;;;0.00;0.00;;;19.80;99.90;;;;;;5037687;28;20041;-56
2023/07/24 07:00:37;;;;;;;0.00;0.00;;;19.80;99.90;;;;;;5039981;28;20079;-57
2023/07/24 07:03:02;;;;;;;0.00;0.00;;;19.80;99.90;;;;;;5037844;28;20103;-57
2023/07/24 07:05:28;;;;;;;0.00;0.00;;;19.90;99.90;;;;;;5034952;28;20568;-56
2023/07/24 07:07:54;;;;;;;0.00;0.00;;;19.90;99.90;;;;;;5040485;28;20044;-57
2023/07/24 07:10:19;;;;;;;0.00;0.00;;;19.90;99.90;;;;;;5036555;28;20069;-56
2023/07/24 07:12:45;;;;;;;0.00;0.00;;;19.90;99.90;;;;;;5036501;28;20033;-57
2023/07/24 07:15:10;;;;;;;0.00;0.00;;;19.90;99.90;;;;;;5035767;28;20602;-55
2023/07/24 07:17:36;;;;;;;0.00;0.00;;;19.80;99.90;;;;;;5029502;28;20141;-55
2023/07/24 07:20:02;;;;;;;0.00;0.00;;;19.70;99.90;;;;;;5039938;28;20711;-58
2023/07/24 07:22:27;;;;;;;0.00;0.00;;;19.80;99.90;;;;;;5039380;28;20037;-56
2023/07/24 07:24:53;;;;;;;0.00;0.00;;;19.90;99.90;;;;;;5039695;28;20397;-56
2023/07/24 07:27:19;;;;;;;0.00;0.00;;;19.90;99.90;;;;;;5034837;28;20037;-58
2023/07/24 07:29:44;;;;;;;0.00;0.00;;;19.80;99.90;;;;;;5040007;28;20041;-61
2023/07/24 07:32:10;;;;;;;0.00;0.00;;;19.70;99.90;;;;;;5037459;28;20119;-59
2023/07/24 07:34:38;;;;;;;0.00;0.00;;;19.80;99.90;;;;;;5035760;28;20354;-54
2023/07/24 07:37:04;;;;;;;0.00;0.00;;;19.80;99.90;;;;;;5033072;28;20135;-58
2023/07/24 07:39:30;;;;;;;0.00;0.00;;;19.80;99.90;;;;;;5037551;28;20037;-57
2023/07/24 07:41:55;;;;;;;0.00;0.00;;;19.80;99.90;;;;;;5038669;28;20036;-57
2023/07/24 07:44:21;;;;;;;0.00;0.00;;;19.70;99.90;;;;;;5039229;28;20047;-57
2023/07/24 07:46:47;;;;;;;0.00;0.00;;;19.90;99.90;;;;;;5040404;28;20041;-58
2023/07/24 07:49:13;;;;;;;0.00;0.00;;;20.00;99.90;;;;;;5040543;28;20041;-59
2023/07/24 07:51:38;;;;;;;0.00;0.00;;;20.00;99.90;;;;;;5038544;28;20326;-57
2023/07/24 07:54:04;;;;;;;0.00;0.00;;;20.20;99.90;;;;;;5041331;28;20145;-59
2023/07/24 07:56:30;;;;;;;0.00;0.00;;;20.20;99.90;;;;;;5032466;28;20128;-58
2023/07/24 07:58:55;;;;;;;0.00;0.00;;;20.30;99.90;;;;;;5041161;28;20073;-58
2023/07/24 08:01:21;;;;;;;0.00;0.00;;;20.30;99.90;;;;;;5038117;28;20041;-57
2023/07/24 08:03:46;;;;;;;0.00;0.00;;;20.20;99.90;;;;;;5043574;28;20436;-58
2023/07/24 08:06:12;;;;;;;0.00;0.00;;;20.30;99.90;;;;;;5037310;28;20025;-57
2023/07/24 08:08:38;;;;;;;0.00;0.00;;;20.10;99.90;;;;;;5041555;28;20040;-56
2023/07/24 08:11:07;;;;;;;0.00;0.00;;;20.20;99.90;;;;;;5038221;28;20068;-57
2023/07/24 08:13:33;;;;;;;0.00;0.00;;;20.30;99.90;;;;;;5044814;28;20041;-56
2023/07/24 08:15:59;;;;;;;0.00;0.00;;;20.30;99.90;;;;;;5043007;28;20041;-58
2023/07/24 08:18:25;;;;;;;0.00;0.00;;;20.30;99.90;;;;;;5035414;28;20032;-57
2023/07/24 08:20:51;;;;;;;0.00;0.00;;;20.30;99.90;;;;;;5041489;28;20025;-57
2023/07/24 08:23:16;;;;;;;0.00;0.00;;;20.30;99.90;;;;;;5041979;28;20494;-57
2023/07/24 08:25:55;;;;;;;0.00;0.00;;;20.40;99.90;;;;;;5042711;28;20041;-58
2023/07/24 08:28:21;;;;;;;0.00;0.00;;;20.50;99.90;;;;;;5032597;28;20539;-58
2023/07/24 08:30:55;;;;;;;0.00;0.00;;;20.70;99.90;;;;;;5038095;28;20083;-58
2023/07/24 08:33:21;;;;;;;0.00;0.00;;;20.70;99.90;;;;;;5039317;28;20533;-57
2023/07/24 08:35:46;;;;;;;0.00;0.00;;;20.80;99.90;;;;;;5040913;28;20029;-57
2023/07/24 08:38:12;;;;;;;0.00;0.00;;;20.80;99.90;;;;;;5037257;28;20057;-58
2023/07/24 08:40:39;;;;;;;0.00;0.00;;;20.90;99.90;;;;;;5037387;28;20351;-59
2023/07/24 08:43:05;;;;;;;0.00;0.00;;;20.90;99.90;;;;;;5040553;28;20029;-58
2023/07/24 08:45:31;;;;;;;0.00;0.00;;;20.80;99.90;;;;;;5042975;28;20065;-56
2023/07/24 08:47:59;;;;;;;0.00;0.00;;;20.90;99.90;;;;;;5037281;28;20033;-56
2023/07/24 08:50:26;;;;;;;0.00;0.00;;;20.90;99.90;;;;;;5039061;28;20148;-59
2023/07/24 08:52:52;;;;;;;0.00;0.00;;;21.10;99.90;;;;;;5041977;28;20048;-56
2023/07/24 08:55:18;;;;;;;0.00;0.00;;;21.10;99.90;;;;;;5027047;28;20296;-58
2023/07/24 08:57:44;;;;;;;0.00;0.00;;;21.00;99.90;;;;;;5038575;28;20041;-56
2023/07/24 09:00:10;;;;;;;0.00;0.00;;;21.10;99.90;;;;;;5039754;28;20029;-57
2023/07/24 09:02:36;;;;;;;0.00;0.00;;;21.20;99.90;;;;;;5040463;28;20037;-57
2023/07/24 09:05:03;;;;;;;0.00;0.00;;;21.20;99.90;;;;;;5039814;28;20102;-56
2023/07/24 09:07:31;;;;;;;0.00;0.00;;;;;;;;;;5034874;28;20087;-57
2023/07/24 09:09:57;;;;;;;0.00;0.00;;;21.50;99.90;;;;;;5034029;28;20036;-56
2023/07/24 09:12:23;;;;;;;0.00;0.00;;;21.50;99.90;;;;;;5037605;28;20485;-59
2023/07/24 09:14:59;;;;;;;0.00;0.00;;;21.40;99.90;;;;;;5040833;28;20068;-58
2023/07/24 09:17:25;;;;;;;0.00;0.00;;;21.30;99.90;;;;;;5038039;28;20032;-56
2023/07/24 09:19:56;;;;;;;0.00;0.00;;;21.20;99.90;;;;;;5040033;28;20044;-55
2023/07/24 09:22:22;;;;;;;0.00;0.00;;;21.20;99.90;;;;;;5033876;28;20125;-57
2023/07/24 09:24:52;;;;;;;0.00;0.00;;;21.20;99.90;;;;;;5038082;28;20124;-58
2023/07/24 09:27:18;;;;;;;0.00;0.00;;;21.40;99.90;;;;;;5031500;28;20068;-58
2023/07/24 09:29:43;;;;;;;0.00;0.00;;;21.30;99.90;;;;;;5036366;28;20060;-57
2023/07/24 09:32:20;;;;;;;0.00;0.00;;;21.20;99.90;;;;;;5042834;28;20353;-59
2023/07/24 09:34:46;;;;;;;0.00;0.00;;;21.30;99.90;;;;;;5038140;28;20038;-58
2023/07/24 09:37:21;;;;;;;0.00;0.00;;;21.30;99.90;;;;;;5038752;28;20036;-54
2023/07/24 09:39:47;;;;;;;0.00;0.00;;;21.40;99.90;;;;;;5033649;28;20047;-59
2023/07/24 09:42:13;;;;;;;0.00;0.00;;;21.30;99.90;;;;;;5044612;28;20124;-56
2023/07/24 09:44:39;;;;;;;0.00;0.00;;;21.40;99.90;;;;;;5039337;28;20400;-61
2023/07/24 09:47:05;;;;;;;0.00;0.00;;;21.50;99.90;;;;;;5039807;28;20132;-58
2023/07/24 09:49:30;;;;;;;0.00;0.00;;;21.50;99.90;;;;;;5042380;28;20052;-58
2023/07/24 09:51:59;;;;;;;0.00;0.00;;;21.50;99.90;;;;;;5041038;28;20752;-60
2023/07/24 09:54:34;;;;;;;0.00;0.00;;;21.60;99.90;;;;;;5033819;28;20420;-57
2023/07/24 09:57:01;;;;;;;0.00;0.00;;;22.00;99.90;;;;;;5036225;28;20104;-58
2023/07/24 09:59:29;;;;;;;0.00;0.00;;;21.90;99.90;;;;;;5036845;28;21206;-58
2023/07/24 10:01:54;;;;;;;0.00;0.00;;;21.90;99.90;;;;;;5037123;28;20605;-56
2023/07/24 10:04:21;;;;;;;0.00;0.00;;;22.20;99.90;;;;;;5041251;28;20029;-58
2023/07/24 10:06:47;;;;;;;0.00;0.00;;;22.20;99.90;;;;;;5038450;28;20036;-57
2023/07/24 10:09:13;;;;;;;0.00;0.00;;;22.00;99.90;;;;;;5035763;28;20496;-58
2023/07/24 10:11:38;;;;;;;0.00;0.00;;;22.30;99.90;;;;;;5034617;28;20040;-58
2023/07/24 10:14:04;;;;;;;0.00;0.00;;;22.10;99.90;;;;;;5043361;28;20102;-59
2023/07/24 10:16:30;;;;;;;0.00;0.00;;;23.30;99.90;;;;;;5040726;28;20047;-58
2023/07/24 10:18:56;;;;;;;0.00;0.00;;;22.00;99.90;;;;;;5033933;28;20036;-57
2023/07/24 10:21:28;;;;;;;0.00;0.00;;;21.80;99.90;;;;;;5038853;28;20052;-58
2023/07/24 10:23:53;;;;;;;0.00;0.00;;;21.70;99.90;;;;;;5036990;28;20481;-58
2023/07/24 10:26:26;;;;;;;0.00;0.00;;;21.40;99.90;;;;;;5040194;28;20033;-59
2023/07/24 10:28:52;;;;;;;0.00;0.00;;;21.20;99.90;;;;;;5037698;28;20526;-58
2023/07/24 10:31:23;;;;;;;0.00;0.00;;;21.20;99.90;;;;;;5036866;28;20037;-58
2023/07/24 10:33:49;;;;;;;0.00;0.00;;;21.30;99.90;;;;;;5034678;28;20039;-59
2023/07/24 10:36:19;;;;;;;0.00;0.00;;;20.90;99.90;;;;;;5037004;28;20048;-59
2023/07/24 10:38:46;;;;;;;0.00;0.00;;;21.00;99.90;;;;;;5035552;28;20036;-60
2023/07/24 10:41:12;;;;;;;0.00;0.00;;;21.00;99.90;;;;;;5041485;28;20033;-59
2023/07/24 10:43:45;;;;;;;0.00;0.00;;;21.00;99.90;;;;;;5040686;28;20032;-59
2023/07/24 10:46:11;;;;;;;0.00;0.00;;;21.00;99.90;;;;;;5038662;28;20135;-59
2023/07/24 10:48:37;;;;;;;0.00;0.00;;;20.80;99.90;;;;;;5037756;28;20112;-58
2023/07/24 10:51:10;;;;;;;0.00;0.00;;;20.70;99.90;;;;;;5035256;28;20078;-57
2023/07/24 10:53:37;;;;;;;0.00;0.00;;;20.70;99.90;;;;;;5034637;28;20048;-57
2023/07/24 10:56:05;;;;;;;0.00;0.00;;;20.70;99.90;;;;;;5037683;28;20051;-57
2023/07/24 10:58:31;;;;;;;0.00;0.00;;;20.40;99.90;;;;;;5029419;28;20832;-57
2023/07/24 11:00:57;;;;;;;0.00;0.00;;;20.60;99.90;;;;;;5031139;28;20044;-62
2023/07/24 11:03:26;;;;;;;0.00;0.00;;;20.60;99.90;;;;;;5039448;28;20037;-60
2023/07/24 11:05:53;;;;;;;0.00;0.00;;;20.40;99.90;;;;;;5034104;28;20036;-56
2023/07/24 11:08:20;;;;;;;0.00;0.00;;;20.40;99.90;;;;;;5034615;28;20493;-61
2023/07/24 11:10:49;;;;;;;0.00;0.00;;;20.40;99.90;;;;;;5038609;28;20491;-59
2023/07/24 11:13:16;;;;;;;0.00;0.00;;;20.30;99.90;;;;;;5039731;28;20056;-59
2023/07/24 11:15:42;;;;;;;0.00;0.00;;;19.80;99.90;;;;;;5038183;28;20108;-60
2023/07/24 11:18:11;;;;;;;0.00;0.00;;;19.80;99.90;;;;;;5038841;28;20156;-59
2023/07/24 11:20:44;;;;;;;0.00;0.00;;;19.80;99.90;;;;;;5040408;28;20044;-61
2023/07/24 11:23:10;;;;;;;0.00;0.00;;;20.00;99.90;;;;;;5040620;28;20040;-60
2023/07/24 11:25:36;;;;;;;0.00;0.00;;;20.00;99.90;;;;;;5034908;28;20125;-61
2023/07/24 11:28:04;;;;;;;0.00;0.00;;;20.20;99.90;;;;;;5037157;28;20044;-60
2023/07/24 11:30:30;;;;;;;0.00;0.00;;;20.20;99.90;;;;;;5031227;28;20049;-59
2023/07/24 11:32:59;;;;;;;0.00;0.00;;;20.20;99.90;;;;;;5040423;28;20621;-56
2023/07/24 11:35:25;;;;;;;0.00;0.00;;;20.00;99.90;;;;;;5042760;28;20511;-57
2023/07/24 11:37:51;;;;;;;0.00;0.00;;;20.00;99.90;;;;;;5041791;28;20041;-59
2023/07/24 11:40:19;;;;;;;0.00;0.00;;;20.00;99.90;;;;;;5041495;28;20037;-58
2023/07/24 11:42:46;;;;;;;0.00;0.00;;;20.10;99.90;;;;;;5039467;28;20552;-59
2023/07/24 11:45:12;;;;;;;0.00;0.00;;;20.20;99.90;;;;;;5033873;28;20104;-59
2023/07/24 11:47:46;;;;;;;0.00;0.00;;;20.40;99.90;;;;;;5038302;28;20107;-56
2023/07/24 11:50:12;;;;;;;0.00;0.00;;;20.50;99.90;;;;;;5037627;28;20039;-58
2023/07/24 11:52:46;;;;;;;0.00;0.00;;;20.70;99.90;;;;;;5044180;28;20041;-60
2023/07/24 11:55:13;;;;;;;0.00;0.00;;;20.80;99.90;;;;;;5040810;28;20036;-60
2023/07/24 11:57:39;;;;;;;0.00;0.00;;;20.80;99.90;;;;;;5044806;28;20072;-59
2023/07/24 12:00:06;;;;;;;0.00;0.00;;;20.90;99.90;;;;;;5039311;28;20537;-59
2023/07/24 12:02:34;;;;;;;0.00;0.00;;;20.90;99.90;;;;;;5040619;28;20045;-58
2023/07/24 12:05:00;;;;;;;0.00;0.00;;;21.30;99.90;;;;;;5041151;28;20758;-59
2023/07/24 12:07:34;;;;;;;0.00;0.00;;;20.80;99.90;;;;;;5040799;28;20060;-59
2023/07/24 12:10:01;;;;;;;0.00;0.00;;;21.60;99.90;;;;;;5039415;28;20042;-62
2023/07/24 12:12:37;;;;;;;0.00;0.00;;;21.70;99.90;;;;;;5057309;28;20657;-60
2023/07/24 12:15:03;;;;;;;0.00;0.00;;;21.80;99.90;;;;;;5035812;28;20707;-59
2023/07/24 12:17:29;;;;;;;0.00;0.00;;;21.80;99.90;;;;;;5038221;28;20070;-60
2023/07/24 12:19:54;;;;;;;0.00;0.00;;;21.50;99.90;;;;;;5042355;28;20556;-57
2023/07/24 12:22:20;;;;;;;0.00;0.00;;;21.50;99.90;;;;;;5040807;28;20040;-57
2023/07/24 12:24:45;;;;;;;0.00;0.00;;;21.80;99.90;;;;;;5040670;28;20039;-60
2023/07/24 12:27:11;;;;;;;0.00;0.00;;;21.80;99.90;;;;;;5034723;28;20079;-56
2023/07/24 12:29:37;;;;;;;0.00;0.00;;;21.70;99.90;;;;;;5038969;28;20408;-60
2023/07/24 12:32:03;;;;;;;0.00;0.00;;;21.80;99.90;;;;;;5041313;28;20126;-59
2023/07/24 12:34:28;;;;;;;0.00;0.00;;;21.70;99.90;;;;;;5041437;28;20033;-58
2023/07/24 12:36:54;;;;;;;0.00;0.00;;;21.90;99.90;;;;;;5040945;28;20748;-57
2023/07/24 12:39:20;;;;;;;0.00;0.00;;;21.80;99.90;;;;;;5035921;28;20168;-55
2023/07/24 12:41:45;;;;;;;0.00;0.00;;;21.80;99.90;;;;;;5035814;28;20039;-57
2023/07/24 12:44:11;;;;;;;0.00;0.00;;;21.80;99.90;;;;;;5035852;28;20049;-61